sensor_id;sensor_type;location;lat;lon;timestamp;P1;durP1;ratioP1;P2;durP2;ratioP2
68377;SDS011;55322;48.146;11.516;2024-01-06T00:02:04;25.20;;;12.77;;
68377;SDS011;55322;48.146;11.516;2024-01-06T00:04:30;25.90;;;13.07;;
68377;SDS011;55322;48.146;11.516;2024-01-06T00:06:55;24.93;;;13.07;;
68377;SDS011;55322;48.146;11.516;2024-01-06T00:09:21;25.10;;;12.80;;
68377;SDS011;55322;48.146;11.516;2024-01-06T00:11:46;28.47;;;13.90;;
68377;SDS011;55322;48.146;11.516;2024-01-06T00:14:11;25.87;;;12.87;;
68377;SDS011;55322;48.146;11.516;2024-01-06T00:16:37;30.23;;;13.93;;
68377;SDS011;55322;48.146;11.516;2024-01-06T00:19:02;31.80;;;14.50;;
68377;SDS011;55322;48.146;11.516;2024-01-06T00:21:27;25.23;;;13.63;;
68377;SDS011;55322;48.146;11.516;2024-01-06T00:23:53;25.70;;;13.93;;
68377;SDS011;55322;48.146;11.516;2024-01-06T00:26:20;29.17;;;13.93;;
68377;SDS011;55322;48.146;11.516;2024-01-06T00:28:46;30.45;;;14.35;;
68377;SDS011;55322;48.146;11.516;2024-01-06T00:31:14;34.17;;;15.93;;
68377;SDS011;55322;48.146;11.516;2024-01-06T00:33:39;29.87;;;15.03;;
68377;SDS011;55322;48.146;11.516;2024-01-06T00:36:06;30.50;;;14.27;;
68377;SDS011;55322;48.146;11.516;2024-01-06T00:38:32;27.30;;;14.20;;
68377;SDS011;55322;48.146;11.516;2024-01-06T00:40:58;29.73;;;14.70;;
68377;SDS011;55322;48.146;11.516;2024-01-06T00:43:23;34.17;;;15.65;;
68377;SDS011;55322;48.146;11.516;2024-01-06T00:45:48;30.10;;;14.53;;
68377;SDS011;55322;48.146;11.516;2024-01-06T00:48:14;32.17;;;15.03;;
68377;SDS011;55322;48.146;11.516;2024-01-06T00:50:39;32.67;;;15.27;;
68377;SDS011;55322;48.146;11.516;2024-01-06T00:53:05;35.00;;;17.30;;
68377;SDS011;55322;48.146;11.516;2024-01-06T00:55:31;39.37;;;17.03;;
68377;SDS011;55322;48.146;11.516;2024-01-06T00:57:56;37.30;;;16.37;;
68377;SDS011;55322;48.146;11.516;2024-01-06T01:00:21;37.50;;;16.30;;
68377;SDS011;55322;48.146;11.516;2024-01-06T01:02:47;34.70;;;15.73;;
68377;SDS011;55322;48.146;11.516;2024-01-06T01:05:13;40.50;;;16.33;;
68377;SDS011;55322;48.146;11.516;2024-01-06T01:07:38;32.97;;;14.70;;
68377;SDS011;55322;48.146;11.516;2024-01-06T01:10:04;30.63;;;13.97;;
68377;SDS011;55322;48.146;11.516;2024-01-06T01:12:30;30.02;;;13.60;;
68377;SDS011;55322;48.146;11.516;2024-01-06T01:14:56;29.07;;;12.87;;
68377;SDS011;55322;48.146;11.516;2024-01-06T01:17:21;24.60;;;11.30;;
68377;SDS011;55322;48.146;11.516;2024-01-06T01:19:47;26.87;;;11.00;;
68377;SDS011;55322;48.146;11.516;2024-01-06T01:22:12;26.50;;;11.43;;
68377;SDS011;55322;48.146;11.516;2024-01-06T01:24:38;25.38;;;11.70;;
68377;SDS011;55322;48.146;11.516;2024-01-06T01:27:03;24.87;;;10.80;;
68377;SDS011;55322;48.146;11.516;2024-01-06T01:29:29;27.23;;;10.45;;
68377;SDS011;55322;48.146;11.516;2024-01-06T01:31:54;25.57;;;10.83;;
68377;SDS011;55322;48.146;11.516;2024-01-06T01:34:20;21.10;;;9.63;;
68377;SDS011;55322;48.146;11.516;2024-01-06T01:36:45;22.17;;;9.33;;
68377;SDS011;55322;48.146;11.516;2024-01-06T01:39:10;22.90;;;9.80;;
68377;SDS011;55322;48.146;11.516;2024-01-06T01:41:36;22.03;;;9.20;;
68377;SDS011;55322;48.146;11.516;2024-01-06T01:44:01;20.70;;;9.50;;
68377;SDS011;55322;48.146;11.516;2024-01-06T01:46:27;19.90;;;9.43;;
68377;SDS011;55322;48.146;11.516;2024-01-06T01:48:54;21.53;;;9.90;;
68377;SDS011;55322;48.146;11.516;2024-01-06T01:51:21;21.25;;;8.70;;
68377;SDS011;55322;48.146;11.516;2024-01-06T01:53:46;24.52;;;10.15;;
68377;SDS011;55322;48.146;11.516;2024-01-06T01:56:12;23.10;;;9.67;;
68377;SDS011;55322;48.146;11.516;2024-01-06T01:58:38;22.15;;;9.43;;
68377;SDS011;55322;48.146;11.516;2024-01-06T02:01:04;23.17;;;9.73;;
68377;SDS011;55322;48.146;11.516;2024-01-06T02:03:30;22.42;;;10.13;;
68377;SDS011;55322;48.146;11.516;2024-01-06T02:05:55;27.02;;;9.90;;
68377;SDS011;55322;48.146;11.516;2024-01-06T02:08:21;24.70;;;10.43;;
68377;SDS011;55322;48.146;11.516;2024-01-06T02:10:47;21.40;;;9.80;;
68377;SDS011;55322;48.146;11.516;2024-01-06T02:13:12;23.20;;;10.53;;
68377;SDS011;55322;48.146;11.516;2024-01-06T02:15:38;26.97;;;10.63;;
68377;SDS011;55322;48.146;11.516;2024-01-06T02:18:04;24.88;;;10.65;;
68377;SDS011;55322;48.146;11.516;2024-01-06T02:20:30;23.70;;;10.00;;
68377;SDS011;55322;48.146;11.516;2024-01-06T02:22:56;21.88;;;9.45;;
68377;SDS011;55322;48.146;11.516;2024-01-06T02:25:23;24.63;;;9.88;;
68377;SDS011;55322;48.146;11.516;2024-01-06T02:27:49;23.07;;;10.00;;
68377;SDS011;55322;48.146;11.516;2024-01-06T02:30:14;24.93;;;11.00;;
68377;SDS011;55322;48.146;11.516;2024-01-06T02:32:39;22.67;;;9.50;;
68377;SDS011;55322;48.146;11.516;2024-01-06T02:35:05;22.47;;;10.17;;
68377;SDS011;55322;48.146;11.516;2024-01-06T02:37:31;22.90;;;10.23;;
68377;SDS011;55322;48.146;11.516;2024-01-06T02:39:56;22.40;;;9.87;;
68377;SDS011;55322;48.146;11.516;2024-01-06T02:42:21;26.13;;;11.35;;
68377;SDS011;55322;48.146;11.516;2024-01-06T02:44:47;25.23;;;10.90;;
68377;SDS011;55322;48.146;11.516;2024-01-06T02:47:12;26.47;;;11.57;;
68377;SDS011;55322;48.146;11.516;2024-01-06T02:49:38;27.47;;;12.57;;
68377;SDS011;55322;48.146;11.516;2024-01-06T02:52:03;31.17;;;12.67;;
68377;SDS011;55322;48.146;11.516;2024-01-06T02:54:29;27.23;;;11.77;;
68377;SDS011;55322;48.146;11.516;2024-01-06T02:56:54;25.47;;;11.37;;
68377;SDS011;55322;48.146;11.516;2024-01-06T02:59:20;24.17;;;10.07;;
68377;SDS011;55322;48.146;11.516;2024-01-06T03:01:45;20.33;;;8.40;;
68377;SDS011;55322;48.146;11.516;2024-01-06T03:04:10;21.10;;;9.43;;
68377;SDS011;55322;48.146;11.516;2024-01-06T03:06:36;18.60;;;8.53;;
68377;SDS011;55322;48.146;11.516;2024-01-06T03:09:01;18.07;;;8.87;;
68377;SDS011;55322;48.146;11.516;2024-01-06T03:11:27;19.20;;;7.73;;
68377;SDS011;55322;48.146;11.516;2024-01-06T03:13:52;18.87;;;8.60;;
68377;SDS011;55322;48.146;11.516;2024-01-06T03:16:17;21.27;;;9.17;;
68377;SDS011;55322;48.146;11.516;2024-01-06T03:18:43;19.50;;;8.33;;
68377;SDS011;55322;48.146;11.516;2024-01-06T03:21:18;17.97;;;8.37;;
68377;SDS011;55322;48.146;11.516;2024-01-06T03:23:43;18.83;;;8.50;;
68377;SDS011;55322;48.146;11.516;2024-01-06T03:26:09;19.53;;;8.77;;
68377;SDS011;55322;48.146;11.516;2024-01-06T03:28:34;18.30;;;8.17;;
68377;SDS011;55322;48.146;11.516;2024-01-06T03:31:00;20.50;;;8.37;;
68377;SDS011;55322;48.146;11.516;2024-01-06T03:33:25;17.70;;;8.17;;
68377;SDS011;55322;48.146;11.516;2024-01-06T03:35:50;18.40;;;8.65;;
68377;SDS011;55322;48.146;11.516;2024-01-06T03:38:15;18.77;;;8.17;;
68377;SDS011;55322;48.146;11.516;2024-01-06T03:40:41;18.83;;;8.57;;
68377;SDS011;55322;48.146;11.516;2024-01-06T03:43:06;17.77;;;8.40;;
68377;SDS011;55322;48.146;11.516;2024-01-06T03:45:32;20.73;;;8.40;;
68377;SDS011;55322;48.146;11.516;2024-01-06T03:47:57;19.80;;;8.90;;
68377;SDS011;55322;48.146;11.516;2024-01-06T03:50:22;16.33;;;7.97;;
68377;SDS011;55322;48.146;11.516;2024-01-06T03:52:48;16.03;;;7.77;;
68377;SDS011;55322;48.146;11.516;2024-01-06T03:55:13;16.43;;;7.00;;
68377;SDS011;55322;48.146;11.516;2024-01-06T03:57:40;15.40;;;7.25;;
68377;SDS011;55322;48.146;11.516;2024-01-06T04:00:05;15.93;;;7.00;;
68377;SDS011;55322;48.146;11.516;2024-01-06T04:02:32;15.10;;;7.05;;
68377;SDS011;55322;48.146;11.516;2024-01-06T04:04:58;16.47;;;7.50;;
68377;SDS011;55322;48.146;11.516;2024-01-06T04:07:23;15.93;;;7.33;;
68377;SDS011;55322;48.146;11.516;2024-01-06T04:09:48;17.10;;;7.70;;
68377;SDS011;55322;48.146;11.516;2024-01-06T04:12:14;12.95;;;6.10;;
68377;SDS011;55322;48.146;11.516;2024-01-06T04:14:39;11.03;;;4.90;;
68377;SDS011;55322;48.146;11.516;2024-01-06T04:17:04;9.30;;;3.83;;
68377;SDS011;55322;48.146;11.516;2024-01-06T04:19:30;9.10;;;3.80;;
68377;SDS011;55322;48.146;11.516;2024-01-06T04:21:55;10.23;;;4.37;;
68377;SDS011;55322;48.146;11.516;2024-01-06T04:24:21;9.18;;;4.10;;
68377;SDS011;55322;48.146;11.516;2024-01-06T04:26:47;8.80;;;3.60;;
68377;SDS011;55322;48.146;11.516;2024-01-06T04:29:12;8.40;;;3.55;;
68377;SDS011;55322;48.146;11.516;2024-01-06T04:31:38;8.30;;;3.10;;
68377;SDS011;55322;48.146;11.516;2024-01-06T04:34:03;7.53;;;2.60;;
68377;SDS011;55322;48.146;11.516;2024-01-06T04:36:28;6.80;;;2.20;;
68377;SDS011;55322;48.146;11.516;2024-01-06T04:38:54;5.93;;;1.57;;
68377;SDS011;55322;48.146;11.516;2024-01-06T04:41:20;5.40;;;1.50;;
68377;SDS011;55322;48.146;11.516;2024-01-06T04:43:45;5.53;;;1.60;;
68377;SDS011;55322;48.146;11.516;2024-01-06T04:46:11;4.70;;;1.23;;
68377;SDS011;55322;48.146;11.516;2024-01-06T04:48:37;4.97;;;1.00;;
68377;SDS011;55322;48.146;11.516;2024-01-06T04:51:04;6.80;;;1.17;;
68377;SDS011;55322;48.146;11.516;2024-01-06T04:53:29;4.20;;;0.90;;
68377;SDS011;55322;48.146;11.516;2024-01-06T04:55:55;4.90;;;0.80;;
68377;SDS011;55322;48.146;11.516;2024-01-06T04:58:20;4.80;;;1.13;;
68377;SDS011;55322;48.146;11.516;2024-01-06T05:00:45;3.97;;;0.73;;
68377;SDS011;55322;48.146;11.516;2024-01-06T05:03:11;4.63;;;0.83;;
68377;SDS011;55322;48.146;11.516;2024-01-06T05:05:36;3.78;;;0.70;;
68377;SDS011;55322;48.146;11.516;2024-01-06T05:08:01;3.93;;;0.60;;
68377;SDS011;55322;48.146;11.516;2024-01-06T05:10:28;3.70;;;0.70;;
68377;SDS011;55322;48.146;11.516;2024-01-06T05:12:53;3.73;;;0.50;;
68377;SDS011;55322;48.146;11.516;2024-01-06T05:15:19;4.47;;;0.70;;
68377;SDS011;55322;48.146;11.516;2024-01-06T05:17:44;4.77;;;0.73;;
68377;SDS011;55322;48.146;11.516;2024-01-06T05:20:10;3.55;;;0.47;;
68377;SDS011;55322;48.146;11.516;2024-01-06T05:22:35;4.65;;;0.68;;
68377;SDS011;55322;48.146;11.516;2024-01-06T05:25:00;4.00;;;0.70;;
68377;SDS011;55322;48.146;11.516;2024-01-06T05:27:26;8.40;;;0.70;;
68377;SDS011;55322;48.146;11.516;2024-01-06T05:29:51;3.20;;;0.50;;
68377;SDS011;55322;48.146;11.516;2024-01-06T05:32:16;3.90;;;0.57;;
68377;SDS011;55322;48.146;11.516;2024-01-06T05:34:42;3.45;;;0.50;;
68377;SDS011;55322;48.146;11.516;2024-01-06T05:37:09;3.33;;;0.55;;
68377;SDS011;55322;48.146;11.516;2024-01-06T05:39:34;3.47;;;0.50;;
68377;SDS011;55322;48.146;11.516;2024-01-06T05:42:03;3.35;;;0.47;;
68377;SDS011;55322;48.146;11.516;2024-01-06T05:44:28;3.33;;;0.50;;
68377;SDS011;55322;48.146;11.516;2024-01-06T05:46:54;5.33;;;0.60;;
68377;SDS011;55322;48.146;11.516;2024-01-06T05:49:19;3.28;;;0.60;;
68377;SDS011;55322;48.146;11.516;2024-01-06T05:51:45;4.63;;;0.80;;
68377;SDS011;55322;48.146;11.516;2024-01-06T05:54:11;4.32;;;0.90;;
68377;SDS011;55322;48.146;11.516;2024-01-06T05:56:36;5.30;;;1.30;;
68377;SDS011;55322;48.146;11.516;2024-01-06T05:59:01;6.97;;;1.50;;
68377;SDS011;55322;48.146;11.516;2024-01-06T06:01:28;6.38;;;1.70;;
68377;SDS011;55322;48.146;11.516;2024-01-06T06:03:53;5.73;;;1.57;;
68377;SDS011;55322;48.146;11.516;2024-01-06T06:06:18;6.27;;;1.90;;
68377;SDS011;55322;48.146;11.516;2024-01-06T06:08:45;6.40;;;1.70;;
68377;SDS011;55322;48.146;11.516;2024-01-06T06:11:11;5.85;;;1.50;;
68377;SDS011;55322;48.146;11.516;2024-01-06T06:13:42;5.40;;;1.40;;
68377;SDS011;55322;48.146;11.516;2024-01-06T06:16:11;4.68;;;1.27;;
68377;SDS011;55322;48.146;11.516;2024-01-06T06:18:37;5.72;;;1.30;;
68377;SDS011;55322;48.146;11.516;2024-01-06T06:21:03;6.18;;;1.42;;
68377;SDS011;55322;48.146;11.516;2024-01-06T06:23:32;4.70;;;1.40;;
68377;SDS011;55322;48.146;11.516;2024-01-06T06:25:57;5.03;;;1.35;;
68377;SDS011;55322;48.146;11.516;2024-01-06T06:28:24;5.80;;;1.70;;
68377;SDS011;55322;48.146;11.516;2024-01-06T06:30:50;5.50;;;1.57;;
68377;SDS011;55322;48.146;11.516;2024-01-06T06:33:15;4.70;;;1.40;;
68377;SDS011;55322;48.146;11.516;2024-01-06T06:35:40;5.40;;;1.80;;
68377;SDS011;55322;48.146;11.516;2024-01-06T06:38:06;6.25;;;1.92;;
68377;SDS011;55322;48.146;11.516;2024-01-06T06:40:31;5.80;;;2.10;;
68377;SDS011;55322;48.146;11.516;2024-01-06T06:42:57;6.47;;;1.93;;
68377;SDS011;55322;48.146;11.516;2024-01-06T06:45:22;6.90;;;2.10;;
68377;SDS011;55322;48.146;11.516;2024-01-06T06:47:48;6.45;;;2.28;;
68377;SDS011;55322;48.146;11.516;2024-01-06T06:50:15;7.97;;;2.73;;
68377;SDS011;55322;48.146;11.516;2024-01-06T06:52:44;7.00;;;2.70;;
68377;SDS011;55322;48.146;11.516;2024-01-06T06:55:10;7.50;;;2.57;;
68377;SDS011;55322;48.146;11.516;2024-01-06T06:57:35;7.30;;;2.63;;
68377;SDS011;55322;48.146;11.516;2024-01-06T07:00:01;8.05;;;2.90;;
68377;SDS011;55322;48.146;11.516;2024-01-06T07:02:27;8.05;;;2.47;;
68377;SDS011;55322;48.146;11.516;2024-01-06T07:04:52;7.93;;;2.70;;
68377;SDS011;55322;48.146;11.516;2024-01-06T07:07:18;9.25;;;2.63;;
68377;SDS011;55322;48.146;11.516;2024-01-06T07:09:44;6.60;;;2.40;;
68377;SDS011;55322;48.146;11.516;2024-01-06T07:12:09;8.50;;;2.40;;
68377;SDS011;55322;48.146;11.516;2024-01-06T07:14:34;8.52;;;2.60;;
68377;SDS011;55322;48.146;11.516;2024-01-06T07:17:00;8.17;;;2.80;;
68377;SDS011;55322;48.146;11.516;2024-01-06T07:19:25;8.33;;;2.80;;
68377;SDS011;55322;48.146;11.516;2024-01-06T07:21:51;8.37;;;2.67;;
68377;SDS011;55322;48.146;11.516;2024-01-06T07:24:16;8.33;;;3.07;;
68377;SDS011;55322;48.146;11.516;2024-01-06T07:26:42;10.15;;;2.50;;
68377;SDS011;55322;48.146;11.516;2024-01-06T07:29:07;7.60;;;3.13;;
68377;SDS011;55322;48.146;11.516;2024-01-06T07:31:33;8.30;;;2.90;;
68377;SDS011;55322;48.146;11.516;2024-01-06T07:33:59;7.70;;;3.05;;
68377;SDS011;55322;48.146;11.516;2024-01-06T07:36:24;12.80;;;3.33;;
68377;SDS011;55322;48.146;11.516;2024-01-06T07:38:50;7.70;;;3.08;;
68377;SDS011;55322;48.146;11.516;2024-01-06T07:41:16;8.90;;;3.20;;
68377;SDS011;55322;48.146;11.516;2024-01-06T07:43:42;8.23;;;2.85;;
68377;SDS011;55322;48.146;11.516;2024-01-06T07:46:08;8.83;;;3.37;;
68377;SDS011;55322;48.146;11.516;2024-01-06T07:48:34;9.57;;;3.45;;
68377;SDS011;55322;48.146;11.516;2024-01-06T07:51:00;8.02;;;3.00;;
68377;SDS011;55322;48.146;11.516;2024-01-06T07:53:26;9.07;;;3.65;;
68377;SDS011;55322;48.146;11.516;2024-01-06T07:55:52;8.18;;;3.55;;
68377;SDS011;55322;48.146;11.516;2024-01-06T07:58:17;8.43;;;3.73;;
68377;SDS011;55322;48.146;11.516;2024-01-06T08:00:42;10.07;;;3.80;;
68377;SDS011;55322;48.146;11.516;2024-01-06T08:03:08;10.13;;;3.57;;
68377;SDS011;55322;48.146;11.516;2024-01-06T08:05:33;10.27;;;3.30;;
68377;SDS011;55322;48.146;11.516;2024-01-06T08:07:59;9.15;;;3.42;;
68377;SDS011;55322;48.146;11.516;2024-01-06T08:10:24;10.60;;;3.10;;
68377;SDS011;55322;48.146;11.516;2024-01-06T08:12:49;10.07;;;2.90;;
68377;SDS011;55322;48.146;11.516;2024-01-06T08:15:15;8.17;;;2.60;;
68377;SDS011;55322;48.146;11.516;2024-01-06T08:17:40;6.60;;;2.30;;
68377;SDS011;55322;48.146;11.516;2024-01-06T08:20:06;7.45;;;2.08;;
68377;SDS011;55322;48.146;11.516;2024-01-06T08:22:33;9.47;;;1.77;;
68377;SDS011;55322;48.146;11.516;2024-01-06T08:24:59;6.55;;;1.80;;
68377;SDS011;55322;48.146;11.516;2024-01-06T08:27:24;5.40;;;1.63;;
68377;SDS011;55322;48.146;11.516;2024-01-06T08:29:50;8.07;;;2.40;;
68377;SDS011;55322;48.146;11.516;2024-01-06T08:32:15;5.60;;;1.70;;
68377;SDS011;55322;48.146;11.516;2024-01-06T08:34:41;5.78;;;1.55;;
68377;SDS011;55322;48.146;11.516;2024-01-06T08:37:07;7.32;;;1.52;;
68377;SDS011;55322;48.146;11.516;2024-01-06T08:39:32;7.90;;;1.47;;
68377;SDS011;55322;48.146;11.516;2024-01-06T08:41:57;5.43;;;1.20;;
68377;SDS011;55322;48.146;11.516;2024-01-06T08:44:23;6.88;;;1.50;;
68377;SDS011;55322;48.146;11.516;2024-01-06T08:46:49;7.77;;;1.40;;
68377;SDS011;55322;48.146;11.516;2024-01-06T08:49:15;8.13;;;1.48;;
68377;SDS011;55322;48.146;11.516;2024-01-06T08:51:40;7.00;;;1.67;;
68377;SDS011;55322;48.146;11.516;2024-01-06T08:54:06;7.38;;;1.70;;
68377;SDS011;55322;48.146;11.516;2024-01-06T08:56:34;9.27;;;2.00;;
68377;SDS011;55322;48.146;11.516;2024-01-06T08:59:00;6.60;;;1.63;;
68377;SDS011;55322;48.146;11.516;2024-01-06T09:01:25;6.77;;;1.67;;
68377;SDS011;55322;48.146;11.516;2024-01-06T09:03:50;7.20;;;1.70;;
68377;SDS011;55322;48.146;11.516;2024-01-06T09:06:16;6.40;;;1.53;;
68377;SDS011;55322;48.146;11.516;2024-01-06T09:08:41;6.27;;;1.70;;
68377;SDS011;55322;48.146;11.516;2024-01-06T09:11:06;8.77;;;1.85;;
68377;SDS011;55322;48.146;11.516;2024-01-06T09:13:32;8.33;;;1.80;;
68377;SDS011;55322;48.146;11.516;2024-01-06T09:15:58;6.77;;;1.90;;
68377;SDS011;55322;48.146;11.516;2024-01-06T09:18:25;6.47;;;1.80;;
68377;SDS011;55322;48.146;11.516;2024-01-06T09:20:50;7.00;;;1.95;;
68377;SDS011;55322;48.146;11.516;2024-01-06T09:23:16;7.20;;;1.77;;
68377;SDS011;55322;48.146;11.516;2024-01-06T09:25:41;9.33;;;1.90;;
68377;SDS011;55322;48.146;11.516;2024-01-06T09:28:07;8.27;;;1.70;;
68377;SDS011;55322;48.146;11.516;2024-01-06T09:30:32;8.30;;;1.87;;
68377;SDS011;55322;48.146;11.516;2024-01-06T09:32:57;6.43;;;1.88;;
68377;SDS011;55322;48.146;11.516;2024-01-06T09:35:23;7.63;;;1.77;;
68377;SDS011;55322;48.146;11.516;2024-01-06T09:37:49;6.67;;;1.90;;
68377;SDS011;55322;48.146;11.516;2024-01-06T09:40:14;6.13;;;1.67;;
68377;SDS011;55322;48.146;11.516;2024-01-06T09:42:46;9.65;;;2.30;;
68377;SDS011;55322;48.146;11.516;2024-01-06T09:45:11;8.07;;;2.22;;
68377;SDS011;55322;48.146;11.516;2024-01-06T09:47:37;7.97;;;2.60;;
68377;SDS011;55322;48.146;11.516;2024-01-06T09:50:05;8.80;;;2.50;;
68377;SDS011;55322;48.146;11.516;2024-01-06T09:52:34;10.13;;;2.90;;
68377;SDS011;55322;48.146;11.516;2024-01-06T09:55:11;7.80;;;2.40;;
68377;SDS011;55322;48.146;11.516;2024-01-06T09:57:37;5.28;;;1.70;;
68377;SDS011;55322;48.146;11.516;2024-01-06T10:00:03;8.70;;;2.97;;
68377;SDS011;55322;48.146;11.516;2024-01-06T10:02:29;6.60;;;2.25;;
68377;SDS011;55322;48.146;11.516;2024-01-06T10:04:56;7.10;;;2.27;;
68377;SDS011;55322;48.146;11.516;2024-01-06T10:07:23;9.13;;;2.60;;
68377;SDS011;55322;48.146;11.516;2024-01-06T10:09:50;9.63;;;2.35;;
68377;SDS011;55322;48.146;11.516;2024-01-06T10:12:22;10.18;;;2.58;;
68377;SDS011;55322;48.146;11.516;2024-01-06T10:14:48;8.68;;;2.95;;
68377;SDS011;55322;48.146;11.516;2024-01-06T10:17:14;10.15;;;2.75;;
68377;SDS011;55322;48.146;11.516;2024-01-06T10:19:39;9.70;;;3.03;;
68377;SDS011;55322;48.146;11.516;2024-01-06T10:22:05;10.27;;;2.83;;
68377;SDS011;55322;48.146;11.516;2024-01-06T10:24:30;8.27;;;3.17;;
68377;SDS011;55322;48.146;11.516;2024-01-06T10:26:56;8.52;;;3.17;;
68377;SDS011;55322;48.146;11.516;2024-01-06T10:29:22;11.15;;;3.15;;
68377;SDS011;55322;48.146;11.516;2024-01-06T10:31:49;7.60;;;2.90;;
68377;SDS011;55322;48.146;11.516;2024-01-06T10:34:14;9.98;;;3.00;;
68377;SDS011;55322;48.146;11.516;2024-01-06T10:36:40;12.47;;;3.03;;
68377;SDS011;55322;48.146;11.516;2024-01-06T10:39:06;7.55;;;2.80;;
68377;SDS011;55322;48.146;11.516;2024-01-06T10:41:32;13.17;;;2.80;;
68377;SDS011;55322;48.146;11.516;2024-01-06T10:43:59;8.10;;;2.72;;
68377;SDS011;55322;48.146;11.516;2024-01-06T10:46:26;9.88;;;2.80;;
68377;SDS011;55322;48.146;11.516;2024-01-06T10:48:53;10.27;;;3.03;;
68377;SDS011;55322;48.146;11.516;2024-01-06T10:51:20;8.45;;;2.90;;
68377;SDS011;55322;48.146;11.516;2024-01-06T10:53:48;10.83;;;3.00;;
68377;SDS011;55322;48.146;11.516;2024-01-06T10:56:15;9.13;;;2.65;;
68377;SDS011;55322;48.146;11.516;2024-01-06T10:58:43;10.45;;;3.00;;
68377;SDS011;55322;48.146;11.516;2024-01-06T11:01:12;7.93;;;3.00;;
68377;SDS011;55322;48.146;11.516;2024-01-06T11:03:38;10.37;;;3.20;;
68377;SDS011;55322;48.146;11.516;2024-01-06T11:06:07;16.02;;;3.80;;
68377;SDS011;55322;48.146;11.516;2024-01-06T11:09:23;9.93;;;3.67;;
68377;SDS011;55322;48.146;11.516;2024-01-06T11:11:38;10.40;;;3.88;;
68377;SDS011;55322;48.146;11.516;2024-01-06T11:14:17;10.15;;;3.50;;
68377;SDS011;55322;48.146;11.516;2024-01-06T11:16:53;10.65;;;3.65;;
68377;SDS011;55322;48.146;11.516;2024-01-06T11:24:48;9.18;;;3.70;;
68377;SDS011;55322;48.146;11.516;2024-01-06T11:27:18;8.50;;;3.40;;
68377;SDS011;55322;48.146;11.516;2024-01-06T11:29:47;10.63;;;3.78;;
68377;SDS011;55322;48.146;11.516;2024-01-06T11:32:17;11.90;;;3.60;;
68377;SDS011;55322;48.146;11.516;2024-01-06T11:34:51;11.18;;;3.83;;
68377;SDS011;55322;48.146;11.516;2024-01-06T11:40:07;10.70;;;4.07;;
68377;SDS011;55322;48.146;11.516;2024-01-06T11:42:34;11.77;;;4.07;;
68377;SDS011;55322;48.146;11.516;2024-01-06T11:45:03;10.85;;;3.53;;
68377;SDS011;55322;48.146;11.516;2024-01-06T11:47:33;11.70;;;3.70;;
68377;SDS011;55322;48.146;11.516;2024-01-06T11:49:59;8.23;;;3.93;;
68377;SDS011;55322;48.146;11.516;2024-01-06T11:52:26;8.88;;;3.80;;
68377;SDS011;55322;48.146;11.516;2024-01-06T11:54:52;15.03;;;4.27;;
68377;SDS011;55322;48.146;11.516;2024-01-06T11:57:19;11.88;;;3.63;;
68377;SDS011;55322;48.146;11.516;2024-01-06T11:59:45;7.90;;;3.80;;
68377;SDS011;55322;48.146;11.516;2024-01-06T12:02:11;10.63;;;3.95;;
68377;SDS011;55322;48.146;11.516;2024-01-06T12:04:38;10.30;;;4.40;;
68377;SDS011;55322;48.146;11.516;2024-01-06T12:07:09;11.50;;;4.65;;
68377;SDS011;55322;48.146;11.516;2024-01-06T12:09:35;10.68;;;4.60;;
68377;SDS011;55322;48.146;11.516;2024-01-06T12:12:03;10.87;;;4.37;;
68377;SDS011;55322;48.146;11.516;2024-01-06T12:14:30;9.93;;;4.60;;
68377;SDS011;55322;48.146;11.516;2024-01-06T12:16:57;11.75;;;5.68;;
68377;SDS011;55322;48.146;11.516;2024-01-06T12:19:27;9.80;;;5.05;;
68377;SDS011;55322;48.146;11.516;2024-01-06T12:21:57;12.70;;;5.18;;
68377;SDS011;55322;48.146;11.516;2024-01-06T12:24:23;16.33;;;5.07;;
68377;SDS011;55322;48.146;11.516;2024-01-06T12:26:48;12.67;;;5.17;;
68377;SDS011;55322;48.146;11.516;2024-01-06T12:29:14;11.52;;;5.65;;
68377;SDS011;55322;48.146;11.516;2024-01-06T12:31:42;10.27;;;5.03;;
68377;SDS011;55322;48.146;11.516;2024-01-06T12:34:08;12.55;;;5.57;;
68377;SDS011;55322;48.146;11.516;2024-01-06T12:36:35;11.87;;;5.73;;
68377;SDS011;55322;48.146;11.516;2024-01-06T12:39:02;11.77;;;5.28;;
68377;SDS011;55322;48.146;11.516;2024-01-06T12:41:28;12.73;;;5.40;;
68377;SDS011;55322;48.146;11.516;2024-01-06T12:43:54;11.40;;;5.00;;
68377;SDS011;55322;48.146;11.516;2024-01-06T12:46:19;12.97;;;4.90;;
68377;SDS011;55322;48.146;11.516;2024-01-06T12:48:45;12.75;;;5.18;;
68377;SDS011;55322;48.146;11.516;2024-01-06T12:51:10;9.57;;;3.80;;
68377;SDS011;55322;48.146;11.516;2024-01-06T12:53:36;12.33;;;3.87;;
68377;SDS011;55322;48.146;11.516;2024-01-06T12:56:01;9.45;;;3.80;;
68377;SDS011;55322;48.146;11.516;2024-01-06T12:58:26;6.97;;;3.03;;
68377;SDS011;55322;48.146;11.516;2024-01-06T13:00:52;7.20;;;2.43;;
68377;SDS011;55322;48.146;11.516;2024-01-06T13:03:17;8.47;;;2.30;;
68377;SDS011;55322;48.146;11.516;2024-01-06T13:05:43;10.65;;;3.92;;
68377;SDS011;55322;48.146;11.516;2024-01-06T13:08:09;10.17;;;2.80;;
68377;SDS011;55322;48.146;11.516;2024-01-06T13:10:35;7.60;;;2.90;;
68377;SDS011;55322;48.146;11.516;2024-01-06T13:13:01;8.90;;;2.97;;
68377;SDS011;55322;48.146;11.516;2024-01-06T13:15:26;8.23;;;2.80;;
68377;SDS011;55322;48.146;11.516;2024-01-06T13:17:52;10.27;;;3.43;;
68377;SDS011;55322;48.146;11.516;2024-01-06T13:20:17;7.07;;;3.10;;
68377;SDS011;55322;48.146;11.516;2024-01-06T13:22:42;10.10;;;4.22;;
68377;SDS011;55322;48.146;11.516;2024-01-06T13:25:08;10.47;;;4.10;;
68377;SDS011;55322;48.146;11.516;2024-01-06T13:27:34;11.67;;;3.67;;
68377;SDS011;55322;48.146;11.516;2024-01-06T13:29:59;9.02;;;3.20;;
68377;SDS011;55322;48.146;11.516;2024-01-06T13:32:25;7.93;;;3.00;;
68377;SDS011;55322;48.146;11.516;2024-01-06T13:34:52;8.65;;;3.45;;
68377;SDS011;55322;48.146;11.516;2024-01-06T13:37:20;11.27;;;3.37;;
68377;SDS011;55322;48.146;11.516;2024-01-06T13:39:47;8.80;;;3.40;;
68377;SDS011;55322;48.146;11.516;2024-01-06T13:42:13;9.45;;;3.97;;
68377;SDS011;55322;48.146;11.516;2024-01-06T13:44:38;9.97;;;4.10;;
68377;SDS011;55322;48.146;11.516;2024-01-06T13:47:04;12.55;;;4.38;;
68377;SDS011;55322;48.146;11.516;2024-01-06T13:49:30;11.73;;;3.90;;
68377;SDS011;55322;48.146;11.516;2024-01-06T13:51:55;13.43;;;4.53;;
68377;SDS011;55322;48.146;11.516;2024-01-06T13:54:21;9.95;;;3.83;;
68377;SDS011;55322;48.146;11.516;2024-01-06T13:56:47;12.00;;;4.22;;
68377;SDS011;55322;48.146;11.516;2024-01-06T13:59:12;10.07;;;3.77;;
68377;SDS011;55322;48.146;11.516;2024-01-06T14:01:38;11.23;;;4.33;;
68377;SDS011;55322;48.146;11.516;2024-01-06T14:04:04;12.25;;;4.50;;
68377;SDS011;55322;48.146;11.516;2024-01-06T14:06:30;10.20;;;4.40;;
68377;SDS011;55322;48.146;11.516;2024-01-06T14:08:59;11.80;;;4.77;;
68377;SDS011;55322;48.146;11.516;2024-01-06T14:11:25;12.05;;;4.45;;
68377;SDS011;55322;48.146;11.516;2024-01-06T14:13:54;11.13;;;4.65;;
68377;SDS011;55322;48.146;11.516;2024-01-06T14:16:19;13.95;;;5.22;;
68377;SDS011;55322;48.146;11.516;2024-01-06T14:18:45;11.15;;;4.68;;
68377;SDS011;55322;48.146;11.516;2024-01-06T14:21:11;10.90;;;4.37;;
68377;SDS011;55322;48.146;11.516;2024-01-06T14:23:39;12.32;;;5.10;;
68377;SDS011;55322;48.146;11.516;2024-01-06T14:26:04;11.27;;;4.80;;
68377;SDS011;55322;48.146;11.516;2024-01-06T14:28:30;13.45;;;4.68;;